Latest Weather Observations for Witchcliffe

IDW60801

Issued at 2:35 pm WST Friday 31 October 2014 (issued every 30 minutes, with the page automatically refreshed every 10 minutes)

About weather observations | Map of weather stations | Latest weather observations for WA | Other Formats
Station Details ID: 009746 Name: WITCHCLIFFE Lat: -34.03 Lon: 115.10 Height: 80.0 m
Data from the previous 72 hours. | See also: Recent months at Witchcliffe
Date/Time
WST
Temp
°C
App
Temp
°C
Dew
Point
Rel
Hum
%
Delta-T
°C
Wind Press
QNH
hPa
Press
MSL
hPa
Rain
since 9 am
mm
Dir
 
Spd
km/h
Gust
km/h
Spd
kts
Gust
kts
31/02:30pm 19.4 16.1 9.6 53 5.2 S 17 26 9 14 1018.1 1018.1 0.2
31/02:00pm 19.3 15.9 9.2 52 5.3 SSE 17 24 9 13 1018.3 1018.3 0.2
31/01:30pm 19.0 15.1 8.6 51 5.4 SSE 19 33 10 18 1018.1 1018.1 0.2
31/01:00pm 17.7 13.4 7.2 50 5.3 SSE 19 35 10 19 1018.2 1018.2 0.2
31/12:30pm 18.0 13.8 8.3 53 5.0 SSE 20 35 11 19 1018.3 1018.3 0.0
31/12:00pm 18.0 12.8 7.4 50 5.4 SE 24 37 13 20 1018.4 1018.4 0.0
31/11:30am 17.5 13.6 8.6 56 4.6 SSE 19 30 10 16 1018.5 1018.5 0.0
31/11:00am 17.3 13.3 9.0 58 4.3 S 20 33 11 18 1018.9 1018.9 0.0
31/10:30am 16.6 13.2 9.1 61 3.9 S 17 22 9 12 1019.2 1019.2 0.0
31/10:00am 15.7 10.8 8.4 62 3.7 SSE 24 33 13 18 1018.9 1018.9 0.0
31/09:30am 15.8 11.7 7.8 59 4.0 S 19 32 10 17 1018.5 1018.5 0.0
31/09:00am 15.8 11.9 9.5 66 3.3 SSE 20 32 11 17 1018.4 1018.4 3.2
31/08:30am 15.2 11.7 8.7 65 3.3 SSE 17 22 9 12 1018.3 1018.3 3.2
31/08:00am 14.7 11.2 7.3 61 3.6 S 15 20 8 11 1017.9 1017.9 3.2
31/07:30am 14.0 10.5 7.1 63 3.4 S 15 19 8 10 1017.8 1017.8 3.2
31/07:00am 13.5 10.5 7.7 68 2.9 S 13 22 7 12 1017.5 1017.5 3.2
31/06:30am 12.8 11.0 7.0 68 2.8 S 6 11 3 6 1017.2 1017.2 3.2
31/06:00am 12.2 10.2 6.9 70 2.5 S 7 11 4 6 1016.9 1016.9 3.2
31/05:30am 11.6 9.7 6.5 71 2.4 S 6 9 3 5 1016.6 1016.6 3.2
31/05:00am 12.3 9.7 5.9 65 3.0 S 9 17 5 9 1016.2 1016.2 3.2
31/04:30am 11.9 8.4 5.5 65 3.0 SSW 13 17 7 9 1015.8 1015.8 3.2
31/04:00am 11.9 9.2 5.8 66 2.9 S 9 15 5 8 1015.4 1015.4 3.2
31/03:30am 11.9 8.9 6.2 68 2.7 S 11 13 6 7 1015.3 1015.3 3.2
31/03:00am 12.0 8.6 6.1 67 2.8 S 13 19 7 10 1015.1 1015.1 3.2
31/02:30am 12.7 9.5 7.0 68 2.8 SSW 13 20 7 11 1014.8 1014.8 3.2
31/02:00am 13.0 9.8 7.0 67 2.9 S 13 22 7 12 1014.6 1014.6 3.2
31/01:30am 13.6 10.5 8.9 73 2.4 SSW 15 20 8 11 1014.3 1014.3 3.2
31/01:00am 13.8 10.9 9.5 75 2.2 SSW 15 24 8 13 1014.2 1014.2 3.2
31/12:30am 14.1 11.4 10.3 78 2.0 SSW 15 22 8 12 1014.2 1014.2 3.2
31/12:00am 14.4 12.5 13.0 91 0.8 SSW 15 28 8 15 1014.2 1014.2 3.2
 
Date/Time
WST
Temp
°C
App
Temp
°C
Dew
Point
Rel
Hum
%
Delta-T
°C
Wind Press
QNH
hPa
Press
MSL
hPa
Rain
since 9 am
mm
Dir
 
Spd
km/h
Gust
km/h
Spd
kts
Gust
kts
30/11:30pm 14.3 12.0 14.1 99 0.1 SSW 19 32 10 17 1014.2 1014.2 3.2
30/11:00pm 14.5 12.1 14.5 100 0.0 SSW 20 35 11 19 1013.8 1013.8 2.8
30/10:30pm 15.0 12.4 14.8 99 0.1 SW 22 33 12 18 1013.6 1013.6 2.0
30/10:00pm 15.6 13.7 14.1 91 0.9 W 17 30 9 16 1013.6 1013.6 0.8
30/09:30pm 16.8 13.9 12.3 75 2.5 W 19 28 10 15 1013.5 1013.4 0.0
30/09:00pm 16.4 14.0 12.8 79 2.0 WNW 17 32 9 17 1013.7 1013.7 0.0
30/08:30pm 16.6 14.3 11.9 74 2.6 WNW 15 26 8 14 1013.7 1013.7 0.0
30/08:00pm 16.4 14.1 11.8 74 2.5 W 15 26 8 14 1013.7 1013.7 0.0
30/07:30pm 16.6 14.1 11.1 70 3.0 W 15 24 8 13 1013.7 1013.7 0.0
30/07:00pm 16.4 13.9 10.9 70 3.0 W 15 24 8 13 1013.5 1013.4 0.0
30/06:30pm 16.1 14.1 11.5 74 2.5 W 13 22 7 12 1013.3 1013.2 0.0
30/06:00pm 16.6 13.8 11.3 71 2.9 W 17 26 9 14 1013.3 1013.2 0.0
30/05:30pm 17.2 13.8 11.2 68 3.3 W 20 32 11 17 1013.0 1012.9 0.0
30/05:00pm 16.9 14.2 11.8 72 2.8 WNW 17 26 9 14 1012.9 1012.8 0.0
30/04:30pm 17.2 13.0 11.0 67 3.3 WNW 24 33 13 18 1012.9 1012.8 0.0
30/04:00pm 17.9 14.1 11.0 64 3.7 WNW 22 35 12 19 1012.7 1012.6 0.0
30/03:30pm 17.5 13.5 11.8 69 3.1 WNW 24 39 13 21 1012.8 1012.7 0.0
30/03:00pm 17.5 13.3 9.9 61 4.0 W 22 35 12 19 1012.8 1012.7 0.0
30/02:30pm 17.5 14.0 10.9 65 3.6 WNW 20 32 11 17 1013.1 1013.0 0.0
30/02:00pm 17.7 14.3 10.6 63 3.8 WNW 19 30 10 16 1013.4 1013.3 0.0
30/01:30pm 17.8 14.2 9.7 59 4.3 W 19 28 10 15 1013.6 1013.6 0.0
30/01:00pm 17.0 13.5 10.1 64 3.7 WNW 19 32 10 17 1013.5 1013.4 0.0
30/12:30pm 17.8 13.8 8.9 56 4.6 WNW 20 30 11 16 1013.5 1013.4 0.0
30/12:00pm 17.7 13.8 8.8 56 4.6 W 19 28 10 15 1013.6 1013.6 0.0
30/11:30am 17.4 15.2 9.3 59 4.2 WNW 11 19 6 10 1013.7 1013.7 0.0
30/11:00am 18.7 15.9 10.0 57 4.6 W 15 26 8 14 1013.9 1013.9 0.0
30/10:30am 18.1 15.4 8.9 55 4.8 WNW 13 24 7 13 1014.2 1014.2 0.0
30/10:00am 17.4 14.3 8.8 57 4.5 W 15 20 8 11 1014.6 1014.6 0.0
30/09:30am 17.3 13.8 8.7 57 4.4 W 17 22 9 12 1014.7 1014.7 0.0
30/09:00am 16.7 15.7 8.9 60 4.0 WSW 4 20 2 11 1014.6 1014.6 0.0
30/08:30am 16.3 14.7 8.8 61 3.9 NW 7 11 4 6 1014.6 1014.6 0.0
30/08:00am 16.3 14.9 9.0 62 3.8 NW 6 9 3 5 1014.7 1014.7 0.0
30/07:30am 15.7 14.3 8.9 64 3.5 SSW 6 9 3 5 1014.6 1014.6 0.0
30/07:00am 14.3 14.9 11.8 85 1.3 CALM 0 7 0 4 1014.7 1014.7 0.0
30/06:30am 13.0 13.8 12.5 97 0.3 CALM 0 0 0 0 1014.9 1014.9 0.0
30/06:00am 12.3 13.0 12.1 99 0.1 CALM 0 0 0 0 1015.0 1015.0 0.0
30/05:30am 11.8 12.3 11.6 99 0.1 CALM 0 0 0 0 1014.9 1014.9 0.0
30/05:00am 11.5 11.9 11.3 99 0.1 CALM 0 0 0 0 1014.8 1014.8 0.0
30/04:30am 11.5 11.9 11.2 98 0.2 CALM 0 0 0 0 1014.9 1014.9 0.0
30/04:00am 11.1 11.4 10.8 98 0.2 CALM 0 0 0 0 1015.1 1015.1 0.0
30/03:30am 10.5 10.5 9.7 95 0.4 CALM 0 0 0 0 1014.9 1014.9 0.0
30/03:00am 10.9 10.9 9.8 93 0.6 CALM 0 6 0 3 1015.0 1015.0 0.0
30/02:30am 11.2 10.0 10.3 94 0.5 SSW 7 11 4 6 1014.9 1014.9 0.0
30/02:00am 10.2 8.7 8.3 88 0.9 SSW 6 7 3 4 1014.7 1014.7 0.0
30/01:30am 11.0 9.4 8.6 85 1.2 SSW 7 9 4 5 1014.9 1014.9 0.0
30/01:00am 11.7 9.7 8.7 82 1.5 SSW 9 11 5 6 1015.0 1015.0 0.0
30/12:30am 12.1 10.2 9.1 82 1.5 SSW 9 13 5 7 1015.4 1015.4 0.0
30/12:00am 12.6 10.7 9.2 80 1.7 SSW 9 13 5 7 1015.5 1015.5 0.0
 
Date/Time
WST
Temp
°C
App
Temp
°C
Dew
Point
Rel
Hum
%
Delta-T
°C
Wind Press
QNH
hPa
Press
MSL
hPa
Rain
since 9 am
mm
Dir
 
Spd
km/h
Gust
km/h
Spd
kts
Gust
kts
29/11:30pm 13.3 11.1 9.5 78 1.9 SSW 11 13 6 7 1015.5 1015.5 0.0
29/11:00pm 13.1 11.2 10.5 84 1.4 SSW 11 15 6 8 1015.8 1015.8 0.0
29/10:30pm 12.5 11.0 10.6 88 1.0 SSW 9 11 5 6 1016.0 1016.0 0.0
29/10:00pm 12.5 11.6 10.6 88 1.0 S 6 9 3 5 1016.2 1016.2 0.0
29/09:30pm 12.8 11.7 10.7 87 1.1 S 7 13 4 7 1016.4 1016.4 0.0
29/09:00pm 13.1 12.2 11.2 88 1.0 S 7 9 4 5 1016.4 1016.4 0.0
29/08:30pm 13.4 12.5 11.3 87 1.1 S 7 11 4 6 1016.3 1016.3 0.0
29/08:00pm 13.7 12.3 10.9 83 1.5 S 9 13 5 7 1016.0 1016.0 0.0
29/07:30pm 14.3 12.2 11.3 82 1.6 S 13 17 7 9 1015.7 1015.7 0.0
29/07:00pm 14.7 12.6 11.3 80 1.8 S 13 17 7 9 1015.4 1015.4 0.0
29/06:30pm 15.6 13.3 10.6 72 2.7 S 13 19 7 10 1015.1 1015.1 0.0
29/06:00pm 16.6 13.9 10.5 67 3.2 S 15 22 8 12 1015.0 1015.0 0.0
29/05:30pm 17.3 13.8 10.2 63 3.8 S 19 24 10 13 1014.8 1014.8 0.0
29/05:00pm 17.8 14.1 10.2 61 4.1 S 20 28 11 15 1014.9 1014.9 0.0
29/04:30pm 18.0 14.1 9.6 58 4.4 S 20 28 11 15 1014.9 1014.9 0.0
29/04:00pm 18.8 15.4 10.4 58 4.5 SSE 19 24 10 13 1014.9 1014.9 0.0
29/03:30pm 19.3 15.6 10.3 56 4.9 S 20 26 11 14 1014.9 1014.9 0.0
29/03:00pm 19.0 14.5 10.0 56 4.8 SSE 24 35 13 19 1014.9 1014.9 0.0
29/02:30pm 19.9 15.8 10.0 53 5.3 S 22 32 12 17 1014.8 1014.8 0.0
29/02:00pm 19.3 15.6 10.0 55 5.0 S 20 28 11 15 1015.2 1015.2 0.0
29/01:30pm 20.1 16.4 10.2 53 5.4 S 20 28 11 15 1015.4 1015.4 0.0
29/01:00pm 19.5 15.8 10.0 54 5.1 SSW 20 28 11 15 1015.5 1015.5 0.0
29/12:30pm 20.2 16.1 10.0 52 5.5 SSE 22 30 12 16 1015.6 1015.6 0.0
29/12:00pm 20.2 16.8 11.1 56 5.0 SSE 20 32 11 17 1015.8 1015.8 0.0
29/11:30am 18.8 14.6 9.6 55 4.9 SE 22 28 12 15 1016.2 1016.2 0.0
29/11:00am 18.8 14.7 10.1 57 4.7 S 22 35 12 19 1016.5 1016.5 0.0
29/10:30am 19.1 14.9 11.2 60 4.3 S 24 33 13 18 1017.0 1017.0 0.0
29/10:00am 18.2 13.6 9.8 58 4.5 S 24 32 13 17 1017.3 1017.3 0.0
29/09:30am 17.7 13.1 9.8 60 4.2 S 24 37 13 20 1017.3 1017.3 0.0
29/09:00am 18.0 14.1 10.9 63 3.8 S 22 32 12 17 1017.1 1017.1 0.0
29/08:30am 17.0 13.0 10.6 66 3.4 S 22 33 12 18 1017.1 1017.1 0.0
29/08:00am 16.1 12.8 10.8 71 2.8 S 19 24 10 13 1016.9 1016.9 0.0
29/07:30am 15.5 13.6 11.7 78 2.1 S 13 19 7 10 1016.8 1016.8 0.0
29/07:00am 14.7 13.2 11.8 83 1.6 S 11 15 6 8 1016.9 1016.9 0.0
29/06:30am 13.2 12.2 12.3 94 0.5 S 9 13 5 7 1016.6 1016.6 0.0
29/06:00am 10.8 10.9 10.0 95 0.4 CALM 0 0 0 0 1016.5 1016.5 0.0
29/05:30am 11.3 10.1 10.4 94 0.5 S 7 9 4 5 1016.2 1016.2 0.0
29/05:00am 11.6 10.0 10.2 91 0.7 SSE 9 11 5 6 1016.0 1016.0 0.0
29/04:30am 11.6 10.2 9.7 88 1.0 SSE 7 9 4 5 1016.0 1016.0 0.0
29/04:00am 12.2 10.1 9.8 85 1.2 S 11 15 6 8 1016.0 1016.0 0.0
29/03:30am 12.8 10.1 10.2 84 1.3 S 15 19 8 10 1015.9 1015.9 0.0
29/03:00am 12.9 10.1 9.9 82 1.5 S 15 19 8 10 1016.0 1016.0 0.0
29/02:30am 13.4 10.2 9.8 79 1.9 SSE 17 26 9 14 1015.9 1015.9 0.0
29/02:00am 13.3 10.1 9.9 80 1.8 SSE 17 22 9 12 1016.0 1016.0 0.0
29/01:30am 13.6 10.1 10.2 80 1.8 SSE 19 24 10 13 1016.2 1016.2 0.0
29/01:00am 13.6 10.2 10.4 81 1.7 SSE 19 24 10 13 1016.4 1016.4 0.0
29/12:30am 13.5 11.0 11.0 85 1.3 SSE 15 20 8 11 1016.4 1016.4 0.0
29/12:00am 13.6 10.7 11.1 85 1.3 SSE 17 24 9 13 1016.4 1016.4 0.0
 
Date/Time
WST
Temp
°C
App
Temp
°C
Dew
Point
Rel
Hum
%
Delta-T
°C
Wind Press
QNH
hPa
Press
MSL
hPa
Rain
since 9 am
mm
Dir
 
Spd
km/h
Gust
km/h
Spd
kts
Gust
kts
28/11:30pm 13.7 10.5 11.4 86 1.2 S 19 26 10 14 1016.3 1016.3 0.0
28/11:00pm 13.8 10.7 11.7 87 1.1 S 19 28 10 15 1016.5 1016.5 0.0
28/10:30pm 13.9 11.8 12.3 90 0.9 SSE 15 20 8 11 1017.0 1017.0 0.0
28/10:00pm 13.9 11.5 12.5 91 0.8 SSE 17 20 9 11 1017.0 1017.0 0.0
28/09:30pm 13.9 12.3 12.8 93 0.6 S 13 19 7 10 1017.3 1017.3 0.0
28/09:00pm 14.0 12.3 12.6 91 0.8 SSE 13 17 7 9 1017.3 1017.3 0.0
28/08:30pm 14.2 12.4 12.2 88 1.1 SSE 13 17 7 9 1017.3 1017.3 0.0
28/08:00pm 14.7 12.2 12.4 86 1.3 SSE 17 22 9 12 1017.0 1017.0 0.0
28/07:30pm 14.9 12.4 12.4 85 1.4 SSE 17 24 9 13 1016.8 1016.8 0.0
28/07:00pm 15.3 12.4 12.2 82 1.7 SSE 19 24 10 13 1016.7 1016.7 0.0
28/06:30pm 16.0 12.8 12.0 77 2.2 SSE 20 30 11 16 1016.4 1016.4 0.0
28/06:00pm 17.0 13.4 11.9 72 2.8 SSE 22 33 12 18 1016.2 1016.2 0.0
28/05:30pm 17.5 13.7 11.3 67 3.4 S 22 32 12 17 1016.1 1016.1 0.0
28/05:00pm 19.0 15.1 12.0 64 3.9 S 24 33 13 18 1015.8 1015.8 0.0
28/04:30pm 19.5 15.8 11.5 60 4.4 S 22 30 12 16 1015.8 1015.8 0.0
28/04:00pm 20.1 16.7 11.3 57 4.9 S 20 30 11 16 1015.8 1015.8 0.0
28/03:30pm 20.3 16.8 11.0 55 5.1 S 20 28 11 15 1015.8 1015.8 0.0
28/03:00pm 20.7 17.2 10.8 53 5.4 S 20 28 11 15 1015.9 1015.9 0.0

Other Formats:

Comma delimited format used in spreadsheet applications
http://www.bom.gov.au/fwo/IDW60801/IDW60801.95641.axf

JavaScript Object Notation format (JSON) in row-major order
http://www.bom.gov.au/fwo/IDW60801/IDW60801.95641.json